sensor_id;sensor_type;location;lat;lon;timestamp;P1;durP1;ratioP1;P2;durP2;ratioP2
29516;SDS011;40993;50.594;8.664;2022-07-29T00:00:31;6.65;;;2.92;;
29516;SDS011;40993;50.594;8.664;2022-07-29T00:03:00;11.13;;;3.88;;
29516;SDS011;40993;50.594;8.664;2022-07-29T00:05:27;11.07;;;3.47;;
29516;SDS011;40993;50.594;8.664;2022-07-29T00:07:55;9.32;;;4.05;;
29516;SDS011;40993;50.594;8.664;2022-07-29T00:10:22;10.30;;;3.92;;
29516;SDS011;40993;50.594;8.664;2022-07-29T00:12:50;15.85;;;4.35;;
29516;SDS011;40993;50.594;8.664;2022-07-29T00:15:17;10.85;;;3.97;;
29516;SDS011;40993;50.594;8.664;2022-07-29T00:17:45;7.90;;;4.05;;
29516;SDS011;40993;50.594;8.664;2022-07-29T00:20:14;11.30;;;4.10;;
29516;SDS011;40993;50.594;8.664;2022-07-29T00:22:41;8.13;;;3.95;;
29516;SDS011;40993;50.594;8.664;2022-07-29T00:25:09;11.07;;;3.90;;
29516;SDS011;40993;50.594;8.664;2022-07-29T00:27:36;7.65;;;3.97;;
29516;SDS011;40993;50.594;8.664;2022-07-29T00:30:04;15.45;;;3.95;;
29516;SDS011;40993;50.594;8.664;2022-07-29T00:32:33;12.05;;;4.05;;
29516;SDS011;40993;50.594;8.664;2022-07-29T00:35:01;13.65;;;3.90;;
29516;SDS011;40993;50.594;8.664;2022-07-29T00:37:47;13.95;;;4.47;;
29516;SDS011;40993;50.594;8.664;2022-07-29T00:40:15;10.13;;;4.15;;
29516;SDS011;40993;50.594;8.664;2022-07-29T00:42:42;11.40;;;3.97;;
29516;SDS011;40993;50.594;8.664;2022-07-29T00:45:10;9.85;;;4.65;;
29516;SDS011;40993;50.594;8.664;2022-07-29T00:47:38;14.18;;;4.63;;
29516;SDS011;40993;50.594;8.664;2022-07-29T00:50:06;8.63;;;4.07;;
29516;SDS011;40993;50.594;8.664;2022-07-29T00:52:35;17.40;;;4.25;;
29516;SDS011;40993;50.594;8.664;2022-07-29T00:55:06;11.93;;;4.43;;
29516;SDS011;40993;50.594;8.664;2022-07-29T00:57:34;10.55;;;4.22;;
29516;SDS011;40993;50.594;8.664;2022-07-29T01:00:02;12.07;;;4.10;;
29516;SDS011;40993;50.594;8.664;2022-07-29T01:02:30;14.32;;;4.18;;
29516;SDS011;40993;50.594;8.664;2022-07-29T01:04:58;9.27;;;3.80;;
29516;SDS011;40993;50.594;8.664;2022-07-29T01:07:26;10.50;;;4.55;;
29516;SDS011;40993;50.594;8.664;2022-07-29T01:09:53;11.00;;;4.32;;
29516;SDS011;40993;50.594;8.664;2022-07-29T01:12:24;12.50;;;4.90;;
29516;SDS011;40993;50.594;8.664;2022-07-29T01:14:53;12.70;;;4.53;;
29516;SDS011;40993;50.594;8.664;2022-07-29T01:17:23;11.25;;;4.38;;
29516;SDS011;40993;50.594;8.664;2022-07-29T01:19:53;9.48;;;4.32;;
29516;SDS011;40993;50.594;8.664;2022-07-29T01:22:28;7.93;;;4.05;;
29516;SDS011;40993;50.594;8.664;2022-07-29T01:25:04;11.50;;;4.07;;
29516;SDS011;40993;50.594;8.664;2022-07-29T01:27:41;16.70;;;4.50;;
29516;SDS011;40993;50.594;8.664;2022-07-29T01:30:16;11.15;;;4.50;;
29516;SDS011;40993;50.594;8.664;2022-07-29T01:32:47;12.85;;;4.30;;
29516;SDS011;40993;50.594;8.664;2022-07-29T01:35:19;11.93;;;4.20;;
29516;SDS011;40993;50.594;8.664;2022-07-29T01:37:48;13.77;;;4.57;;
29516;SDS011;40993;50.594;8.664;2022-07-29T01:40:19;10.90;;;4.38;;
29516;SDS011;40993;50.594;8.664;2022-07-29T01:42:48;7.93;;;4.13;;
29516;SDS011;40993;50.594;8.664;2022-07-29T01:45:20;11.45;;;4.35;;
29516;SDS011;40993;50.594;8.664;2022-07-29T01:47:50;9.07;;;4.40;;
29516;SDS011;40993;50.594;8.664;2022-07-29T01:50:23;12.05;;;4.57;;
29516;SDS011;40993;50.594;8.664;2022-07-29T01:53:04;15.38;;;4.63;;
29516;SDS011;40993;50.594;8.664;2022-07-29T01:55:34;11.48;;;4.25;;
29516;SDS011;40993;50.594;8.664;2022-07-29T01:58:04;16.88;;;4.47;;
29516;SDS011;40993;50.594;8.664;2022-07-29T02:00:34;11.13;;;4.38;;
29516;SDS011;40993;50.594;8.664;2022-07-29T02:03:02;12.27;;;4.68;;
29516;SDS011;40993;50.594;8.664;2022-07-29T02:05:33;11.13;;;4.53;;
29516;SDS011;40993;50.594;8.664;2022-07-29T02:08:01;17.75;;;5.00;;
29516;SDS011;40993;50.594;8.664;2022-07-29T02:10:29;12.05;;;4.57;;
29516;SDS011;40993;50.594;8.664;2022-07-29T02:12:58;11.20;;;4.72;;
29516;SDS011;40993;50.594;8.664;2022-07-29T02:15:27;11.38;;;4.63;;
29516;SDS011;40993;50.594;8.664;2022-07-29T02:17:58;10.45;;;4.80;;
29516;SDS011;40993;50.594;8.664;2022-07-29T02:20:27;10.95;;;4.57;;
29516;SDS011;40993;50.594;8.664;2022-07-29T02:22:55;13.75;;;4.60;;
29516;SDS011;40993;50.594;8.664;2022-07-29T02:25:24;13.27;;;5.00;;
29516;SDS011;40993;50.594;8.664;2022-07-29T02:28:04;11.63;;;5.10;;
29516;SDS011;40993;50.594;8.664;2022-07-29T02:30:32;8.13;;;4.50;;
29516;SDS011;40993;50.594;8.664;2022-07-29T02:33:02;9.05;;;4.88;;
29516;SDS011;40993;50.594;8.664;2022-07-29T02:35:30;10.40;;;4.75;;
29516;SDS011;40993;50.594;8.664;2022-07-29T02:38:00;10.30;;;4.60;;
29516;SDS011;40993;50.594;8.664;2022-07-29T02:40:45;10.35;;;4.38;;
29516;SDS011;40993;50.594;8.664;2022-07-29T02:43:14;12.70;;;4.93;;
29516;SDS011;40993;50.594;8.664;2022-07-29T02:45:42;11.25;;;4.50;;
29516;SDS011;40993;50.594;8.664;2022-07-29T02:48:13;14.55;;;5.05;;
29516;SDS011;40993;50.594;8.664;2022-07-29T02:50:43;11.50;;;4.93;;
29516;SDS011;40993;50.594;8.664;2022-07-29T02:53:12;12.90;;;4.60;;
29516;SDS011;40993;50.594;8.664;2022-07-29T02:55:44;12.85;;;4.53;;
29516;SDS011;40993;50.594;8.664;2022-07-29T02:58:13;10.25;;;4.80;;
29516;SDS011;40993;50.594;8.664;2022-07-29T03:00:43;20.80;;;4.50;;
29516;SDS011;40993;50.594;8.664;2022-07-29T03:03:14;11.85;;;4.50;;
29516;SDS011;40993;50.594;8.664;2022-07-29T03:05:42;11.20;;;4.93;;
29516;SDS011;40993;50.594;8.664;2022-07-29T03:08:10;12.82;;;4.38;;
29516;SDS011;40993;50.594;8.664;2022-07-29T03:10:39;13.05;;;4.85;;
29516;SDS011;40993;50.594;8.664;2022-07-29T03:13:10;12.15;;;5.10;;
29516;SDS011;40993;50.594;8.664;2022-07-29T03:15:39;12.30;;;4.80;;
29516;SDS011;40993;50.594;8.664;2022-07-29T03:18:07;10.65;;;4.60;;
29516;SDS011;40993;50.594;8.664;2022-07-29T03:20:36;13.40;;;4.85;;
29516;SDS011;40993;50.594;8.664;2022-07-29T03:23:04;10.60;;;5.00;;
29516;SDS011;40993;50.594;8.664;2022-07-29T03:25:32;12.60;;;4.85;;
29516;SDS011;40993;50.594;8.664;2022-07-29T03:27:59;9.63;;;4.55;;
29516;SDS011;40993;50.594;8.664;2022-07-29T03:30:27;9.18;;;4.25;;
29516;SDS011;40993;50.594;8.664;2022-07-29T03:32:57;9.23;;;4.88;;
29516;SDS011;40993;50.594;8.664;2022-07-29T03:35:24;10.88;;;4.53;;
29516;SDS011;40993;50.594;8.664;2022-07-29T03:37:53;9.35;;;4.32;;
29516;SDS011;40993;50.594;8.664;2022-07-29T03:40:22;14.35;;;4.60;;
29516;SDS011;40993;50.594;8.664;2022-07-29T03:42:51;12.27;;;5.10;;
29516;SDS011;40993;50.594;8.664;2022-07-29T03:45:21;11.70;;;4.40;;
29516;SDS011;40993;50.594;8.664;2022-07-29T03:47:50;13.20;;;4.40;;
29516;SDS011;40993;50.594;8.664;2022-07-29T03:50:26;14.00;;;5.22;;
29516;SDS011;40993;50.594;8.664;2022-07-29T03:52:55;13.68;;;5.03;;
29516;SDS011;40993;50.594;8.664;2022-07-29T03:55:23;12.60;;;4.97;;
29516;SDS011;40993;50.594;8.664;2022-07-29T03:57:51;9.73;;;4.40;;
29516;SDS011;40993;50.594;8.664;2022-07-29T04:00:18;11.05;;;4.28;;
29516;SDS011;40993;50.594;8.664;2022-07-29T04:02:46;12.57;;;5.22;;
29516;SDS011;40993;50.594;8.664;2022-07-29T04:05:16;11.93;;;4.80;;
29516;SDS011;40993;50.594;8.664;2022-07-29T04:07:44;13.20;;;4.38;;
29516;SDS011;40993;50.594;8.664;2022-07-29T04:10:14;9.98;;;4.80;;
29516;SDS011;40993;50.594;8.664;2022-07-29T04:12:55;13.43;;;4.35;;
29516;SDS011;40993;50.594;8.664;2022-07-29T04:15:22;12.40;;;4.50;;
29516;SDS011;40993;50.594;8.664;2022-07-29T04:17:50;11.88;;;4.35;;
29516;SDS011;40993;50.594;8.664;2022-07-29T04:20:17;10.18;;;4.43;;
29516;SDS011;40993;50.594;8.664;2022-07-29T04:22:45;10.60;;;4.13;;
29516;SDS011;40993;50.594;8.664;2022-07-29T04:25:14;14.77;;;4.20;;
29516;SDS011;40993;50.594;8.664;2022-07-29T04:27:41;10.50;;;4.05;;
29516;SDS011;40993;50.594;8.664;2022-07-29T04:30:22;7.85;;;3.88;;
29516;SDS011;40993;50.594;8.664;2022-07-29T04:32:50;11.70;;;4.40;;
29516;SDS011;40993;50.594;8.664;2022-07-29T04:35:18;15.32;;;4.57;;
29516;SDS011;40993;50.594;8.664;2022-07-29T04:37:45;12.88;;;4.70;;
29516;SDS011;40993;50.594;8.664;2022-07-29T04:40:14;12.70;;;4.72;;
29516;SDS011;40993;50.594;8.664;2022-07-29T04:42:42;18.02;;;4.55;;
29516;SDS011;40993;50.594;8.664;2022-07-29T04:45:12;9.73;;;4.00;;
29516;SDS011;40993;50.594;8.664;2022-07-29T04:47:41;9.68;;;3.95;;
29516;SDS011;40993;50.594;8.664;2022-07-29T04:50:08;10.75;;;4.35;;
29516;SDS011;40993;50.594;8.664;2022-07-29T04:52:37;12.27;;;4.22;;
29516;SDS011;40993;50.594;8.664;2022-07-29T04:55:05;11.10;;;4.25;;
29516;SDS011;40993;50.594;8.664;2022-07-29T04:57:34;12.20;;;4.10;;
29516;SDS011;40993;50.594;8.664;2022-07-29T05:00:02;11.35;;;3.90;;
29516;SDS011;40993;50.594;8.664;2022-07-29T05:02:30;14.15;;;3.88;;
29516;SDS011;40993;50.594;8.664;2022-07-29T05:04:58;11.52;;;4.15;;
29516;SDS011;40993;50.594;8.664;2022-07-29T05:07:25;9.85;;;4.25;;
29516;SDS011;40993;50.594;8.664;2022-07-29T05:09:53;11.55;;;3.95;;
29516;SDS011;40993;50.594;8.664;2022-07-29T05:12:22;11.98;;;3.97;;
29516;SDS011;40993;50.594;8.664;2022-07-29T05:14:51;10.70;;;4.40;;
29516;SDS011;40993;50.594;8.664;2022-07-29T05:17:19;10.48;;;4.00;;
29516;SDS011;40993;50.594;8.664;2022-07-29T05:19:46;12.18;;;4.82;;
29516;SDS011;40993;50.594;8.664;2022-07-29T05:22:14;10.52;;;4.10;;
29516;SDS011;40993;50.594;8.664;2022-07-29T05:24:41;9.23;;;3.67;;
29516;SDS011;40993;50.594;8.664;2022-07-29T05:27:09;10.77;;;3.75;;
29516;SDS011;40993;50.594;8.664;2022-07-29T05:29:36;13.75;;;4.10;;
29516;SDS011;40993;50.594;8.664;2022-07-29T05:32:11;11.70;;;3.70;;
29516;SDS011;40993;50.594;8.664;2022-07-29T05:34:39;7.93;;;3.80;;
29516;SDS011;40993;50.594;8.664;2022-07-29T05:37:16;7.47;;;3.55;;
29516;SDS011;40993;50.594;8.664;2022-07-29T05:39:44;12.20;;;4.20;;
29516;SDS011;40993;50.594;8.664;2022-07-29T05:42:21;9.80;;;3.60;;
29516;SDS011;40993;50.594;8.664;2022-07-29T05:44:49;12.68;;;4.18;;
29516;SDS011;40993;50.594;8.664;2022-07-29T05:47:18;7.85;;;3.60;;
29516;SDS011;40993;50.594;8.664;2022-07-29T05:49:45;10.02;;;4.07;;
29516;SDS011;40993;50.594;8.664;2022-07-29T05:52:13;9.25;;;4.15;;
29516;SDS011;40993;50.594;8.664;2022-07-29T05:54:40;10.27;;;3.55;;
29516;SDS011;40993;50.594;8.664;2022-07-29T05:57:08;8.27;;;3.67;;
29516;SDS011;40993;50.594;8.664;2022-07-29T05:59:35;8.57;;;3.70;;
29516;SDS011;40993;50.594;8.664;2022-07-29T06:02:03;10.25;;;4.15;;
29516;SDS011;40993;50.594;8.664;2022-07-29T06:04:33;14.32;;;4.55;;
29516;SDS011;40993;50.594;8.664;2022-07-29T06:07:00;9.43;;;3.83;;
29516;SDS011;40993;50.594;8.664;2022-07-29T06:09:28;13.75;;;3.70;;
29516;SDS011;40993;50.594;8.664;2022-07-29T06:11:56;8.75;;;3.38;;
29516;SDS011;40993;50.594;8.664;2022-07-29T06:14:24;8.70;;;3.55;;
29516;SDS011;40993;50.594;8.664;2022-07-29T06:16:52;10.43;;;3.50;;
29516;SDS011;40993;50.594;8.664;2022-07-29T06:19:20;14.80;;;3.45;;
29516;SDS011;40993;50.594;8.664;2022-07-29T06:21:48;9.43;;;3.45;;
29516;SDS011;40993;50.594;8.664;2022-07-29T06:24:16;8.07;;;3.35;;
29516;SDS011;40993;50.594;8.664;2022-07-29T06:26:44;9.95;;;3.35;;
29516;SDS011;40993;50.594;8.664;2022-07-29T06:29:12;8.10;;;3.45;;
29516;SDS011;40993;50.594;8.664;2022-07-29T06:31:39;9.80;;;3.40;;
29516;SDS011;40993;50.594;8.664;2022-07-29T06:34:07;10.45;;;3.60;;
29516;SDS011;40993;50.594;8.664;2022-07-29T06:36:36;11.20;;;2.97;;
29516;SDS011;40993;50.594;8.664;2022-07-29T06:39:07;7.40;;;3.42;;
29516;SDS011;40993;50.594;8.664;2022-07-29T06:41:37;6.75;;;2.95;;
29516;SDS011;40993;50.594;8.664;2022-07-29T06:44:08;8.70;;;2.90;;
29516;SDS011;40993;50.594;8.664;2022-07-29T06:46:36;8.48;;;2.80;;
29516;SDS011;40993;50.594;8.664;2022-07-29T06:49:03;8.80;;;3.05;;
29516;SDS011;40993;50.594;8.664;2022-07-29T06:51:31;12.00;;;2.95;;
29516;SDS011;40993;50.594;8.664;2022-07-29T06:53:59;11.15;;;3.10;;
29516;SDS011;40993;50.594;8.664;2022-07-29T06:56:30;9.02;;;2.88;;
29516;SDS011;40993;50.594;8.664;2022-07-29T06:59:05;7.80;;;2.92;;
29516;SDS011;40993;50.594;8.664;2022-07-29T07:01:33;9.35;;;2.85;;
29516;SDS011;40993;50.594;8.664;2022-07-29T07:04:01;9.27;;;2.83;;
29516;SDS011;40993;50.594;8.664;2022-07-29T07:06:28;5.68;;;2.65;;
29516;SDS011;40993;50.594;8.664;2022-07-29T07:08:56;6.55;;;2.72;;
29516;SDS011;40993;50.594;8.664;2022-07-29T07:11:23;9.32;;;3.17;;
29516;SDS011;40993;50.594;8.664;2022-07-29T07:13:52;15.07;;;3.67;;
29516;SDS011;40993;50.594;8.664;2022-07-29T07:16:25;7.28;;;2.90;;
29516;SDS011;40993;50.594;8.664;2022-07-29T07:18:53;12.82;;;3.42;;
29516;SDS011;40993;50.594;8.664;2022-07-29T07:21:21;6.68;;;2.97;;
29516;SDS011;40993;50.594;8.664;2022-07-29T07:23:48;7.07;;;2.72;;
29516;SDS011;40993;50.594;8.664;2022-07-29T07:26:16;9.73;;;3.10;;
29516;SDS011;40993;50.594;8.664;2022-07-29T07:28:43;5.43;;;2.60;;
29516;SDS011;40993;50.594;8.664;2022-07-29T07:31:12;8.52;;;3.03;;
29516;SDS011;40993;50.594;8.664;2022-07-29T07:33:40;8.05;;;2.90;;
29516;SDS011;40993;50.594;8.664;2022-07-29T07:36:07;12.65;;;3.10;;
29516;SDS011;40993;50.594;8.664;2022-07-29T07:38:35;5.63;;;2.58;;
29516;SDS011;40993;50.594;8.664;2022-07-29T07:41:02;8.23;;;2.88;;
29516;SDS011;40993;50.594;8.664;2022-07-29T07:43:30;6.68;;;2.63;;
29516;SDS011;40993;50.594;8.664;2022-07-29T07:45:57;4.93;;;2.30;;
29516;SDS011;40993;50.594;8.664;2022-07-29T07:48:26;6.35;;;2.50;;
29516;SDS011;40993;50.594;8.664;2022-07-29T07:50:54;7.60;;;2.75;;
29516;SDS011;40993;50.594;8.664;2022-07-29T07:53:22;5.45;;;2.60;;
29516;SDS011;40993;50.594;8.664;2022-07-29T07:55:49;8.77;;;2.83;;
29516;SDS011;40993;50.594;8.664;2022-07-29T07:58:37;10.43;;;2.40;;
29516;SDS011;40993;50.594;8.664;2022-07-29T08:01:04;5.10;;;2.33;;
29516;SDS011;40993;50.594;8.664;2022-07-29T08:03:33;8.63;;;2.40;;
29516;SDS011;40993;50.594;8.664;2022-07-29T08:06:01;10.77;;;2.60;;
29516;SDS011;40993;50.594;8.664;2022-07-29T08:08:28;6.35;;;2.30;;
29516;SDS011;40993;50.594;8.664;2022-07-29T08:10:56;4.40;;;2.20;;
29516;SDS011;40993;50.594;8.664;2022-07-29T08:13:27;9.10;;;2.70;;
29516;SDS011;40993;50.594;8.664;2022-07-29T08:15:56;6.25;;;2.78;;
29516;SDS011;40993;50.594;8.664;2022-07-29T08:18:25;14.40;;;3.03;;
29516;SDS011;40993;50.594;8.664;2022-07-29T08:20:54;8.65;;;2.60;;
29516;SDS011;40993;50.594;8.664;2022-07-29T08:23:22;6.63;;;2.60;;
29516;SDS011;40993;50.594;8.664;2022-07-29T08:25:50;6.80;;;2.85;;
29516;SDS011;40993;50.594;8.664;2022-07-29T08:28:20;8.50;;;2.50;;
29516;SDS011;40993;50.594;8.664;2022-07-29T08:30:51;7.75;;;2.45;;
29516;SDS011;40993;50.594;8.664;2022-07-29T08:33:18;8.95;;;2.50;;
29516;SDS011;40993;50.594;8.664;2022-07-29T08:35:46;8.35;;;2.60;;
29516;SDS011;40993;50.594;8.664;2022-07-29T08:38:15;9.27;;;2.47;;
29516;SDS011;40993;50.594;8.664;2022-07-29T08:40:42;11.00;;;2.55;;
29516;SDS011;40993;50.594;8.664;2022-07-29T08:43:10;4.65;;;2.40;;
29516;SDS011;40993;50.594;8.664;2022-07-29T08:45:41;8.52;;;2.80;;
29516;SDS011;40993;50.594;8.664;2022-07-29T08:48:14;5.22;;;2.35;;
29516;SDS011;40993;50.594;8.664;2022-07-29T08:50:42;4.78;;;2.50;;
29516;SDS011;40993;50.594;8.664;2022-07-29T08:53:12;5.45;;;2.50;;
29516;SDS011;40993;50.594;8.664;2022-07-29T08:55:42;7.28;;;2.40;;
29516;SDS011;40993;50.594;8.664;2022-07-29T08:58:11;7.90;;;2.30;;
29516;SDS011;40993;50.594;8.664;2022-07-29T09:00:41;6.97;;;2.88;;
29516;SDS011;40993;50.594;8.664;2022-07-29T09:03:10;7.90;;;2.35;;
29516;SDS011;40993;50.594;8.664;2022-07-29T09:05:40;7.30;;;2.20;;
29516;SDS011;40993;50.594;8.664;2022-07-29T09:08:13;8.57;;;2.60;;
29516;SDS011;40993;50.594;8.664;2022-07-29T09:10:42;6.03;;;2.35;;
29516;SDS011;40993;50.594;8.664;2022-07-29T09:13:10;4.95;;;2.20;;
29516;SDS011;40993;50.594;8.664;2022-07-29T09:15:38;7.53;;;2.30;;
29516;SDS011;40993;50.594;8.664;2022-07-29T09:18:05;3.85;;;2.38;;
29516;SDS011;40993;50.594;8.664;2022-07-29T09:20:48;7.82;;;2.50;;
29516;SDS011;40993;50.594;8.664;2022-07-29T09:23:36;7.93;;;2.42;;
29516;SDS011;40993;50.594;8.664;2022-07-29T09:26:07;6.10;;;2.58;;
29516;SDS011;40993;50.594;8.664;2022-07-29T09:28:34;9.27;;;2.58;;
29516;SDS011;40993;50.594;8.664;2022-07-29T09:31:08;9.63;;;2.20;;
29516;SDS011;40993;50.594;8.664;2022-07-29T09:33:36;6.85;;;2.28;;
29516;SDS011;40993;50.594;8.664;2022-07-29T09:36:06;7.18;;;2.40;;
29516;SDS011;40993;50.594;8.664;2022-07-29T09:38:35;6.70;;;2.30;;
29516;SDS011;40993;50.594;8.664;2022-07-29T09:41:04;4.47;;;2.25;;
29516;SDS011;40993;50.594;8.664;2022-07-29T09:43:33;10.00;;;2.20;;
29516;SDS011;40993;50.594;8.664;2022-07-29T09:46:09;5.80;;;2.40;;
29516;SDS011;40993;50.594;8.664;2022-07-29T09:48:37;7.15;;;2.17;;
29516;SDS011;40993;50.594;8.664;2022-07-29T09:51:05;6.72;;;2.20;;
29516;SDS011;40993;50.594;8.664;2022-07-29T09:53:33;7.28;;;2.20;;
29516;SDS011;40993;50.594;8.664;2022-07-29T09:56:03;5.53;;;2.05;;
29516;SDS011;40993;50.594;8.664;2022-07-29T09:58:31;10.77;;;2.38;;
29516;SDS011;40993;50.594;8.664;2022-07-29T10:01:01;10.55;;;2.30;;
29516;SDS011;40993;50.594;8.664;2022-07-29T10:03:30;7.93;;;2.30;;
29516;SDS011;40993;50.594;8.664;2022-07-29T10:06:04;8.23;;;2.40;;
29516;SDS011;40993;50.594;8.664;2022-07-29T10:08:33;7.78;;;2.00;;
29516;SDS011;40993;50.594;8.664;2022-07-29T10:11:08;7.35;;;2.25;;
29516;SDS011;40993;50.594;8.664;2022-07-29T10:13:36;9.07;;;2.50;;
29516;SDS011;40993;50.594;8.664;2022-07-29T10:16:06;7.50;;;2.00;;
29516;SDS011;40993;50.594;8.664;2022-07-29T10:18:34;5.95;;;2.10;;
29516;SDS011;40993;50.594;8.664;2022-07-29T10:21:02;4.82;;;1.90;;
29516;SDS011;40993;50.594;8.664;2022-07-29T10:23:30;6.15;;;2.20;;
29516;SDS011;40993;50.594;8.664;2022-07-29T10:26:12;4.32;;;2.47;;
29516;SDS011;40993;50.594;8.664;2022-07-29T10:28:40;5.25;;;2.40;;
29516;SDS011;40993;50.594;8.664;2022-07-29T10:31:15;8.38;;;2.40;;
29516;SDS011;40993;50.594;8.664;2022-07-29T10:33:51;5.03;;;2.08;;
29516;SDS011;40993;50.594;8.664;2022-07-29T10:36:26;5.57;;;2.45;;
29516;SDS011;40993;50.594;8.664;2022-07-29T10:39:04;7.45;;;2.50;;
29516;SDS011;40993;50.594;8.664;2022-07-29T10:41:52;4.30;;;2.20;;
29516;SDS011;40993;50.594;8.664;2022-07-29T10:44:25;4.38;;;2.20;;
29516;SDS011;40993;50.594;8.664;2022-07-29T10:46:54;7.18;;;2.28;;
29516;SDS011;40993;50.594;8.664;2022-07-29T10:49:23;4.82;;;2.10;;
29516;SDS011;40993;50.594;8.664;2022-07-29T10:52:02;3.85;;;2.35;;
29516;SDS011;40993;50.594;8.664;2022-07-29T10:54:44;5.72;;;2.35;;
29516;SDS011;40993;50.594;8.664;2022-07-29T10:57:14;6.07;;;2.50;;
29516;SDS011;40993;50.594;8.664;2022-07-29T10:59:51;4.70;;;2.38;;
29516;SDS011;40993;50.594;8.664;2022-07-29T11:02:58;5.18;;;2.20;;
29516;SDS011;40993;50.594;8.664;2022-07-29T11:05:51;7.53;;;2.15;;
29516;SDS011;40993;50.594;8.664;2022-07-29T11:08:42;6.55;;;2.28;;
29516;SDS011;40993;50.594;8.664;2022-07-29T11:14:08;9.05;;;2.33;;
29516;SDS011;40993;50.594;8.664;2022-07-29T11:19:32;6.85;;;2.83;;
29516;SDS011;40993;50.594;8.664;2022-07-29T11:22:01;5.38;;;2.67;;
29516;SDS011;40993;50.594;8.664;2022-07-29T11:24:30;7.07;;;2.50;;
29516;SDS011;40993;50.594;8.664;2022-07-29T11:27:06;5.40;;;2.50;;
29516;SDS011;40993;50.594;8.664;2022-07-29T11:29:35;6.00;;;2.55;;
29516;SDS011;40993;50.594;8.664;2022-07-29T11:32:10;5.90;;;2.85;;
29516;SDS011;40993;50.594;8.664;2022-07-29T11:34:43;7.70;;;3.05;;
29516;SDS011;40993;50.594;8.664;2022-07-29T11:37:17;7.75;;;2.88;;
29516;SDS011;40993;50.594;8.664;2022-07-29T11:40:07;7.85;;;2.60;;
29516;SDS011;40993;50.594;8.664;2022-07-29T11:42:44;6.95;;;2.85;;
29516;SDS011;40993;50.594;8.664;2022-07-29T11:45:45;7.10;;;2.58;;
29516;SDS011;40993;50.594;8.664;2022-07-29T11:48:18;5.90;;;2.70;;
29516;SDS011;40993;50.594;8.664;2022-07-29T11:50:55;5.15;;;3.03;;
29516;SDS011;40993;50.594;8.664;2022-07-29T11:53:23;6.38;;;2.65;;
29516;SDS011;40993;50.594;8.664;2022-07-29T11:55:57;6.00;;;2.60;;
29516;SDS011;40993;50.594;8.664;2022-07-29T11:58:25;3.97;;;2.72;;
29516;SDS011;40993;50.594;8.664;2022-07-29T12:00:54;6.22;;;2.90;;
29516;SDS011;40993;50.594;8.664;2022-07-29T12:03:25;7.60;;;2.80;;
29516;SDS011;40993;50.594;8.664;2022-07-29T12:06:01;7.47;;;2.90;;
29516;SDS011;40993;50.594;8.664;2022-07-29T12:08:38;5.40;;;2.95;;
29516;SDS011;40993;50.594;8.664;2022-07-29T12:11:14;9.52;;;2.95;;
29516;SDS011;40993;50.594;8.664;2022-07-29T12:13:45;8.57;;;2.72;;
29516;SDS011;40993;50.594;8.664;2022-07-29T12:16:14;9.45;;;3.20;;
29516;SDS011;40993;50.594;8.664;2022-07-29T12:18:56;6.65;;;2.80;;
29516;SDS011;40993;50.594;8.664;2022-07-29T12:21:25;8.35;;;2.80;;
29516;SDS011;40993;50.594;8.664;2022-07-29T12:23:54;7.18;;;2.97;;
29516;SDS011;40993;50.594;8.664;2022-07-29T12:26:30;8.25;;;2.92;;
29516;SDS011;40993;50.594;8.664;2022-07-29T12:29:00;6.47;;;2.67;;
29516;SDS011;40993;50.594;8.664;2022-07-29T12:31:29;8.02;;;2.90;;
29516;SDS011;40993;50.594;8.664;2022-07-29T12:34:11;7.18;;;2.92;;
29516;SDS011;40993;50.594;8.664;2022-07-29T12:36:39;7.60;;;2.92;;
29516;SDS011;40993;50.594;8.664;2022-07-29T12:39:07;8.30;;;3.28;;
29516;SDS011;40993;50.594;8.664;2022-07-29T12:41:36;6.80;;;3.15;;
29516;SDS011;40993;50.594;8.664;2022-07-29T12:44:04;5.90;;;3.15;;
29516;SDS011;40993;50.594;8.664;2022-07-29T12:46:32;9.48;;;3.50;;
29516;SDS011;40993;50.594;8.664;2022-07-29T12:48:59;11.13;;;2.97;;
29516;SDS011;40993;50.594;8.664;2022-07-29T12:51:31;6.40;;;3.40;;
29516;SDS011;40993;50.594;8.664;2022-07-29T12:54:02;6.90;;;3.50;;
29516;SDS011;40993;50.594;8.664;2022-07-29T12:56:31;8.13;;;3.17;;
29516;SDS011;40993;50.594;8.664;2022-07-29T12:59:13;8.23;;;3.45;;
29516;SDS011;40993;50.594;8.664;2022-07-29T13:01:41;11.48;;;3.00;;
29516;SDS011;40993;50.594;8.664;2022-07-29T13:04:09;7.20;;;3.22;;
29516;SDS011;40993;50.594;8.664;2022-07-29T13:06:39;9.43;;;3.10;;
29516;SDS011;40993;50.594;8.664;2022-07-29T13:09:12;7.95;;;3.28;;
29516;SDS011;40993;50.594;8.664;2022-07-29T13:11:41;5.20;;;2.60;;
29516;SDS011;40993;50.594;8.664;2022-07-29T13:14:20;9.05;;;2.80;;
29516;SDS011;40993;50.594;8.664;2022-07-29T13:17:01;6.50;;;3.67;;
29516;SDS011;40993;50.594;8.664;2022-07-29T13:19:34;7.82;;;3.08;;
29516;SDS011;40993;50.594;8.664;2022-07-29T13:22:04;7.07;;;3.03;;
29516;SDS011;40993;50.594;8.664;2022-07-29T13:24:32;8.02;;;3.00;;
29516;SDS011;40993;50.594;8.664;2022-07-29T13:27:00;6.63;;;3.10;;
29516;SDS011;40993;50.594;8.664;2022-07-29T13:29:30;10.15;;;3.10;;
29516;SDS011;40993;50.594;8.664;2022-07-29T13:31:58;5.60;;;3.15;;
29516;SDS011;40993;50.594;8.664;2022-07-29T13:34:26;8.48;;;2.88;;
29516;SDS011;40993;50.594;8.664;2022-07-29T13:36:54;4.93;;;2.85;;
29516;SDS011;40993;50.594;8.664;2022-07-29T13:39:22;8.45;;;2.97;;
29516;SDS011;40993;50.594;8.664;2022-07-29T13:41:50;6.22;;;2.70;;
29516;SDS011;40993;50.594;8.664;2022-07-29T13:44:18;6.95;;;2.88;;
29516;SDS011;40993;50.594;8.664;2022-07-29T13:46:46;12.55;;;3.65;;
29516;SDS011;40993;50.594;8.664;2022-07-29T13:49:13;10.00;;;3.03;;
29516;SDS011;40993;50.594;8.664;2022-07-29T13:51:41;5.10;;;2.80;;
29516;SDS011;40993;50.594;8.664;2022-07-29T13:54:08;11.77;;;8.20;;
29516;SDS011;40993;50.594;8.664;2022-07-29T13:56:37;7.00;;;3.53;;
29516;SDS011;40993;50.594;8.664;2022-07-29T13:59:04;8.57;;;3.13;;
29516;SDS011;40993;50.594;8.664;2022-07-29T14:01:32;7.80;;;3.08;;
29516;SDS011;40993;50.594;8.664;2022-07-29T14:03:59;7.30;;;4.28;;
29516;SDS011;40993;50.594;8.664;2022-07-29T14:06:27;9.85;;;2.83;;
29516;SDS011;40993;50.594;8.664;2022-07-29T14:08:55;11.32;;;3.10;;
29516;SDS011;40993;50.594;8.664;2022-07-29T14:11:22;11.93;;;5.13;;
29516;SDS011;40993;50.594;8.664;2022-07-29T14:13:51;7.65;;;3.22;;
29516;SDS011;40993;50.594;8.664;2022-07-29T14:16:18;8.18;;;3.10;;
29516;SDS011;40993;50.594;8.664;2022-07-29T14:18:46;11.35;;;3.10;;
29516;SDS011;40993;50.594;8.664;2022-07-29T14:21:13;6.50;;;2.92;;
29516;SDS011;40993;50.594;8.664;2022-07-29T14:23:41;6.57;;;2.97;;
29516;SDS011;40993;50.594;8.664;2022-07-29T14:26:09;10.23;;;3.17;;
29516;SDS011;40993;50.594;8.664;2022-07-29T14:28:46;14.32;;;9.07;;
29516;SDS011;40993;50.594;8.664;2022-07-29T14:31:15;6.65;;;2.90;;
29516;SDS011;40993;50.594;8.664;2022-07-29T14:33:43;6.47;;;2.83;;
29516;SDS011;40993;50.594;8.664;2022-07-29T14:36:14;8.38;;;3.20;;
29516;SDS011;40993;50.594;8.664;2022-07-29T14:38:41;7.53;;;3.55;;
29516;SDS011;40993;50.594;8.664;2022-07-29T14:41:09;9.75;;;3.15;;
29516;SDS011;40993;50.594;8.664;2022-07-29T14:43:37;5.45;;;2.70;;
29516;SDS011;40993;50.594;8.664;2022-07-29T14:46:04;6.38;;;3.40;;
29516;SDS011;40993;50.594;8.664;2022-07-29T14:48:35;14.50;;;3.75;;
29516;SDS011;40993;50.594;8.664;2022-07-29T14:51:02;9.23;;;3.67;;
29516;SDS011;40993;50.594;8.664;2022-07-29T14:53:30;6.18;;;3.33;;
29516;SDS011;40993;50.594;8.664;2022-07-29T14:55:57;11.38;;;3.25;;
29516;SDS011;40993;50.594;8.664;2022-07-29T14:58:45;6.70;;;2.97;;
29516;SDS011;40993;50.594;8.664;2022-07-29T15:01:17;7.03;;;2.97;;
29516;SDS011;40993;50.594;8.664;2022-07-29T15:03:46;8.35;;;3.38;;
29516;SDS011;40993;50.594;8.664;2022-07-29T15:06:13;8.25;;;3.08;;